createdAt,value
2022-12-19T00:00:04.864Z,44.70
2022-12-19T00:00:45.133Z,46.03
2022-12-19T00:01:26.814Z,46.00
2022-12-19T00:01:58.666Z,48.47
2022-12-19T00:02:30.692Z,52.80
2022-12-19T00:03:02.470Z,44.15
2022-12-19T00:03:34.199Z,47.22
2022-12-19T00:04:09.123Z,47.48
2022-12-19T00:04:40.809Z,49.02
2022-12-19T00:05:13.419Z,45.83
2022-12-19T00:05:45.031Z,48.42
2022-12-19T00:06:17.552Z,47.05
2022-12-19T00:06:49.035Z,47.90
2022-12-19T00:07:20.596Z,48.20
2022-12-19T00:07:53.563Z,47.68
2022-12-19T00:08:25.219Z,52.45
2022-12-19T00:08:58.958Z,47.33
2022-12-19T00:09:30.462Z,48.42
2022-12-19T00:10:04.523Z,45.25
2022-12-19T00:10:36.022Z,48.22
2022-12-19T00:11:07.517Z,49.63
2022-12-19T00:11:39.854Z,52.00
2022-12-19T00:12:19.066Z,43.28
2022-12-19T00:12:51.000Z,46.35
2022-12-19T00:13:22.771Z,52.60
2022-12-19T00:13:54.291Z,47.13
2022-12-19T00:14:25.811Z,50.50
2022-12-19T00:14:57.301Z,48.25
2022-12-19T00:15:30.335Z,48.58
2022-12-19T00:16:04.206Z,48.10
2022-12-19T00:16:35.825Z,52.30
2022-12-19T00:17:10.568Z,47.72
2022-12-19T00:17:42.149Z,44.75
2022-12-19T00:18:14.316Z,46.67
2022-12-19T00:18:47.087Z,49.38
2022-12-19T00:19:18.637Z,46.72
2022-12-19T00:19:50.291Z,47.35
2022-12-19T00:20:21.791Z,43.12
2022-12-19T00:21:01.460Z,47.10
2022-12-19T00:21:35.101Z,43.80
2022-12-19T00:22:11.016Z,52.05
2022-12-19T00:22:45.708Z,54.15
2022-12-19T00:23:17.186Z,43.63
2022-12-19T00:23:49.395Z,47.42
2022-12-19T00:24:21.918Z,54.78
2022-12-19T00:24:53.483Z,48.03
2022-12-19T00:25:25.017Z,44.53
2022-12-19T00:26:14.574Z,52.20
2022-12-19T00:26:46.092Z,46.83
2022-12-19T00:27:17.618Z,48.33
2022-12-19T00:27:49.149Z,51.68
2022-12-19T00:28:23.696Z,48.08
2022-12-19T00:28:58.215Z,52.45
2022-12-19T00:29:29.714Z,54.52
2022-12-19T00:30:01.218Z,47.63
2022-12-19T00:30:34.965Z,49.90
2022-12-19T00:31:07.985Z,51.65
2022-12-19T00:31:39.663Z,50.10
2022-12-19T00:32:11.375Z,47.05
2022-12-19T00:32:47.670Z,47.08
2022-12-19T00:33:19.181Z,48.28
2022-12-19T00:33:50.741Z,48.30
2022-12-19T00:34:22.246Z,48.25
2022-12-19T00:34:53.751Z,49.76
2022-12-19T00:35:25.342Z,46.33
2022-12-19T00:36:01.041Z,46.80
2022-12-19T00:36:34.424Z,50.83
2022-12-19T00:37:05.931Z,49.02
2022-12-19T00:37:37.498Z,50.76
2022-12-19T00:38:12.956Z,46.05
2022-12-19T00:38:45.890Z,47.35
2022-12-19T00:39:17.492Z,46.97
2022-12-19T00:39:50.798Z,46.26
2022-12-19T00:40:22.455Z,47.30
2022-12-19T00:40:55.924Z,45.33
2022-12-19T00:41:29.895Z,49.97
2022-12-19T00:42:01.471Z,49.45
2022-12-19T00:42:33.254Z,48.85
2022-12-19T00:43:04.784Z,47.78
2022-12-19T00:43:36.763Z,47.92
2022-12-19T00:44:12.048Z,48.00
2022-12-19T00:44:47.403Z,44.50
2022-12-19T00:45:18.891Z,43.75
2022-12-19T00:45:50.482Z,55.03
2022-12-19T00:46:22.776Z,49.33
2022-12-19T00:46:54.330Z,49.13
2022-12-19T00:47:28.615Z,46.35
2022-12-19T00:48:00.135Z,49.67
2022-12-19T00:48:32.346Z,46.78
2022-12-19T00:49:04.124Z,48.58
2022-12-19T00:49:35.896Z,45.92
2022-12-19T00:50:09.074Z,46.38
2022-12-19T00:50:40.569Z,47.47
2022-12-19T00:51:15.547Z,45.10
2022-12-19T00:51:47.174Z,43.00
2022-12-19T00:52:18.780Z,48.50
2022-12-19T00:52:50.313Z,46.38
2022-12-19T00:53:21.815Z,45.40
2022-12-19T00:53:54.793Z,49.00
2022-12-19T00:54:27.010Z,42.55
2022-12-19T00:54:58.867Z,45.58
2022-12-19T00:55:30.721Z,44.15
2022-12-19T00:56:03.943Z,53.15
2022-12-19T00:56:37.340Z,44.30
2022-12-19T00:57:11.207Z,44.15
2022-12-19T00:57:48.797Z,53.58
2022-12-19T00:58:20.299Z,48.75
2022-12-19T00:58:53.967Z,55.08
2022-12-19T00:59:26.754Z,46.42
2022-12-19T01:00:01.123Z,42.72
2022-12-19T01:00:32.768Z,42.95
2022-12-19T01:01:09.966Z,46.90
2022-12-19T01:01:42.150Z,43.70
2022-12-19T01:02:14.073Z,48.60
2022-12-19T01:02:45.915Z,53.53
2022-12-19T01:03:17.615Z,53.17
2022-12-19T01:04:26.075Z,50.80
2022-12-19T01:04:41.989Z,46.20
2022-12-19T01:05:18.491Z,47.67
2022-12-19T01:05:51.224Z,47.65
2022-12-19T01:06:23.183Z,49.75
2022-12-19T01:06:57.911Z,42.35
2022-12-19T01:07:36.334Z,51.25
2022-12-19T01:08:07.844Z,50.33
2022-12-19T01:08:39.680Z,53.25
2022-12-19T01:09:12.296Z,46.97
2022-12-19T01:09:43.829Z,44.75
2022-12-19T01:10:17.225Z,48.25
2022-12-19T01:10:50.094Z,47.13
2022-12-19T01:11:41.972Z,45.70
2022-12-19T01:12:32.366Z,52.35
2022-12-19T01:13:03.970Z,46.33
2022-12-19T01:13:36.811Z,50.30
2022-12-19T01:14:22.531Z,45.80
2022-12-19T01:15:03.974Z,44.78
2022-12-19T01:15:39.298Z,48.97
2022-12-19T01:16:13.045Z,46.53
2022-12-19T01:16:44.731Z,48.20
2022-12-19T01:17:16.347Z,50.22
2022-12-19T01:17:49.062Z,50.03
2022-12-19T01:18:20.767Z,54.38
2022-12-19T01:18:52.878Z,52.97
2022-12-19T01:19:24.423Z,45.85
2022-12-19T01:19:57.342Z,53.13
2022-12-19T01:20:30.016Z,49.20
2022-12-19T01:21:10.036Z,49.10
2022-12-19T01:21:41.834Z,47.63
2022-12-19T01:22:14.438Z,44.92
2022-12-19T01:22:46.259Z,48.97
2022-12-19T01:23:18.156Z,43.70
2022-12-19T01:23:49.681Z,45.90
2022-12-19T01:24:21.211Z,52.42
2022-12-19T01:24:54.300Z,49.35
2022-12-19T01:25:25.868Z,46.67
2022-12-19T01:25:57.683Z,54.38
2022-12-19T01:26:29.410Z,49.33
2022-12-19T01:27:00.929Z,47.35
2022-12-19T01:27:32.462Z,51.03
2022-12-19T01:28:06.163Z,48.92
2022-12-19T01:28:37.690Z,54.08
2022-12-19T01:29:09.210Z,53.45
2022-12-19T01:29:52.400Z,52.05
2022-12-19T01:30:25.183Z,54.55
2022-12-19T01:30:57.663Z,54.70
2022-12-19T01:31:29.205Z,52.63
2022-12-19T01:32:00.806Z,48.85
2022-12-19T01:32:35.162Z,48.70
2022-12-19T01:33:06.790Z,49.92
2022-12-19T01:33:40.909Z,50.40
2022-12-19T01:34:15.019Z,45.10
2022-12-19T01:34:46.790Z,47.75
2022-12-19T01:35:21.149Z,55.55
2022-12-19T01:35:53.419Z,55.25
2022-12-19T01:36:25.200Z,52.10
2022-12-19T01:36:56.850Z,52.90
2022-12-19T01:37:28.354Z,51.25
2022-12-19T01:38:08.132Z,52.17
2022-12-19T01:38:40.604Z,48.80
2022-12-19T01:39:12.164Z,51.60
2022-12-19T01:39:44.912Z,54.53
2022-12-19T01:40:18.669Z,45.85
2022-12-19T01:40:55.513Z,55.80
2022-12-19T01:41:27.190Z,51.63
2022-12-19T01:41:58.992Z,51.75
2022-12-19T01:42:37.852Z,49.05
2022-12-19T01:43:13.953Z,54.42
2022-12-19T01:43:58.045Z,52.63
2022-12-19T01:44:31.427Z,49.33
2022-12-19T01:45:12.126Z,56.58
2022-12-19T01:45:47.023Z,56.53
2022-12-19T01:46:37.264Z,54.25
2022-12-19T01:47:11.371Z,53.15
2022-12-19T01:47:57.414Z,55.33
2022-12-19T01:48:38.023Z,53.20
2022-12-19T01:49:45.281Z,49.33
2022-12-19T01:50:25.390Z,60.78
2022-12-19T01:51:01.853Z,51.03
2022-12-19T01:51:42.657Z,53.05
2022-12-19T01:52:23.501Z,54.75
2022-12-19T01:52:57.074Z,59.80
2022-12-19T01:53:33.129Z,56.72
2022-12-19T01:54:07.295Z,58.05
2022-12-19T01:54:40.571Z,64.07
2022-12-19T01:55:12.628Z,57.30
2022-12-19T01:55:44.528Z,53.95
2022-12-19T01:56:18.253Z,57.35
2022-12-19T01:56:52.306Z,57.97
2022-12-19T01:57:23.990Z,62.22
2022-12-19T01:57:56.705Z,53.45
2022-12-19T01:58:28.313Z,64.35
2022-12-19T01:59:07.285Z,58.35
2022-12-19T01:59:48.031Z,57.60
2022-12-19T02:00:19.641Z,53.63
2022-12-19T02:00:52.984Z,57.30
2022-12-19T02:01:25.534Z,57.25
2022-12-19T02:02:11.693Z,59.45
2022-12-19T02:02:53.972Z,62.70
2022-12-19T02:03:29.105Z,59.20
2022-12-19T02:04:01.980Z,51.85
2022-12-19T02:04:33.906Z,57.50
2022-12-19T02:05:06.100Z,64.35
2022-12-19T02:05:38.314Z,53.58
2022-12-19T02:06:10.562Z,60.92
2022-12-19T02:06:43.067Z,57.35
2022-12-19T02:07:16.597Z,56.30
2022-12-19T02:07:49.490Z,55.90
2022-12-19T02:08:21.803Z,60.33
2022-12-19T02:08:53.859Z,60.13
2022-12-19T02:09:25.695Z,58.17
2022-12-19T02:09:58.480Z,63.67
2022-12-19T02:10:38.854Z,58.50
2022-12-19T02:11:10.608Z,61.85
2022-12-19T02:11:43.073Z,59.83
2022-12-19T02:12:14.982Z,57.47
2022-12-19T02:12:49.271Z,62.40
2022-12-19T02:13:22.020Z,67.85
2022-12-19T02:13:53.564Z,67.15
2022-12-19T02:14:25.615Z,63.60
2022-12-19T02:15:03.118Z,60.78
2022-12-19T02:16:07.908Z,63.30
2022-12-19T02:16:50.543Z,55.40
2022-12-19T02:17:31.212Z,55.15
2022-12-19T02:18:24.269Z,60.85
2022-12-19T02:19:10.439Z,57.30
2022-12-19T02:20:03.294Z,56.72
2022-12-19T02:20:54.316Z,55.08
2022-12-19T02:21:58.239Z,57.63
2022-12-19T02:22:48.812Z,57.30
2022-12-19T02:23:52.994Z,53.60
2022-12-19T02:25:00.161Z,60.67
2022-12-19T02:25:50.411Z,58.35
2022-12-19T02:26:48.294Z,59.20
2022-12-19T02:27:40.829Z,59.35
2022-12-19T02:28:26.001Z,60.20
2022-12-19T02:29:09.281Z,53.50
2022-12-19T02:30:07.183Z,51.35
2022-12-19T02:30:54.001Z,50.53
2022-12-19T02:31:32.812Z,55.63
2022-12-19T02:32:13.353Z,52.63
2022-12-19T02:32:53.465Z,51.65
2022-12-19T02:33:34.114Z,51.03
2022-12-19T02:35:07.913Z,47.42
2022-12-19T02:35:47.144Z,49.70
2022-12-19T02:36:23.004Z,50.75
2022-12-19T02:37:08.339Z,55.88
2022-12-19T02:38:13.219Z,50.83
2022-12-19T02:38:54.552Z,51.28
2022-12-19T02:39:50.982Z,49.63
2022-12-19T02:40:33.744Z,56.22
2022-12-19T02:41:13.707Z,48.40
2022-12-19T02:41:57.136Z,42.90
2022-12-19T02:42:32.008Z,50.47
2022-12-19T02:43:06.811Z,53.42
2022-12-19T02:43:44.021Z,53.78
2022-12-19T02:44:22.514Z,54.83
2022-12-19T02:44:54.935Z,58.58
2022-12-19T02:45:33.920Z,58.50
2022-12-19T02:46:06.508Z,57.55
2022-12-19T02:46:41.953Z,55.70
2022-12-19T02:47:15.630Z,57.25
2022-12-19T02:47:47.460Z,58.05
2022-12-19T02:48:19.729Z,51.72
2022-12-19T02:48:51.914Z,58.25
2022-12-19T02:49:30.965Z,62.40
2022-12-19T02:50:04.615Z,59.25
2022-12-19T02:50:42.290Z,54.38
2022-12-19T02:51:15.972Z,48.45
2022-12-19T02:51:48.907Z,51.03
2022-12-19T02:52:23.183Z,56.35
2022-12-19T02:52:57.108Z,51.42
2022-12-19T02:53:28.672Z,44.50
2022-12-19T02:54:04.797Z,50.58
2022-12-19T02:54:37.927Z,55.97
2022-12-19T02:55:21.726Z,58.13
2022-12-19T02:56:16.739Z,57.05
2022-12-19T02:57:12.533Z,51.65
2022-12-19T02:58:17.756Z,43.97
2022-12-19T02:59:21.557Z,53.63
2022-12-19T03:00:08.159Z,52.05
2022-12-19T03:01:00.925Z,49.38
2022-12-19T03:01:42.094Z,46.70
2022-12-19T03:02:25.369Z,51.13
2022-12-19T03:03:18.530Z,54.53
2022-12-19T03:04:25.706Z,49.78
2022-12-19T03:05:16.808Z,48.53
2022-12-19T03:06:01.729Z,47.03
2022-12-19T03:06:40.977Z,54.25
2022-12-19T03:07:21.761Z,47.33
2022-12-19T03:08:25.237Z,50.45
2022-12-19T03:09:14.421Z,42.22
2022-12-19T03:09:53.355Z,52.45
2022-12-19T03:10:37.501Z,55.38
2022-12-19T03:11:13.300Z,55.85
2022-12-19T03:11:49.004Z,51.53
2022-12-19T03:12:29.580Z,58.80
2022-12-19T03:13:07.223Z,50.38
2022-12-19T03:13:43.930Z,53.53
2022-12-19T03:14:17.686Z,49.72
2022-12-19T03:14:49.647Z,51.50
2022-12-19T03:15:23.466Z,51.22
2022-12-19T03:15:57.397Z,59.25
2022-12-19T03:16:29.501Z,44.88
2022-12-19T03:17:06.121Z,55.42
2022-12-19T03:17:38.102Z,48.30
2022-12-19T03:18:10.008Z,57.03
2022-12-19T03:18:42.091Z,58.05
2022-12-19T03:19:14.863Z,55.58
2022-12-19T03:19:46.396Z,47.33
2022-12-19T03:20:46.022Z,57.25
2022-12-19T03:21:34.128Z,49.47
2022-12-19T03:22:06.016Z,43.53
2022-12-19T03:22:37.555Z,44.63
2022-12-19T03:23:09.327Z,52.83
2022-12-19T03:23:41.209Z,49.30
2022-12-19T03:24:13.901Z,47.00
2022-12-19T03:24:45.791Z,47.08
2022-12-19T03:25:18.728Z,62.38
2022-12-19T03:25:55.341Z,54.38
2022-12-19T03:26:29.225Z,46.42
2022-12-19T03:27:37.545Z,47.13
2022-12-19T03:28:13.341Z,45.50
2022-12-19T03:28:54.491Z,47.92
2022-12-19T03:29:30.424Z,55.08
2022-12-19T03:30:06.570Z,53.92
2022-12-19T03:30:43.325Z,47.40
2022-12-19T03:31:16.989Z,53.15
2022-12-19T03:31:48.683Z,50.95
2022-12-19T03:32:21.418Z,51.45
2022-12-19T03:32:54.849Z,54.58
2022-12-19T03:33:27.691Z,56.22
2022-12-19T03:34:02.662Z,53.72
2022-12-19T03:34:59.633Z,47.88
2022-12-19T03:35:32.218Z,51.55
2022-12-19T03:36:06.656Z,50.60
2022-12-19T03:36:41.988Z,50.55
2022-12-19T03:37:16.076Z,45.50
2022-12-19T03:37:49.641Z,48.33
2022-12-19T03:38:21.743Z,49.50
2022-12-19T03:38:53.773Z,53.15
2022-12-19T03:39:26.763Z,50.38
2022-12-19T03:40:04.833Z,49.10
2022-12-19T03:40:37.391Z,47.47
2022-12-19T03:41:10.656Z,49.60
2022-12-19T03:42:02.002Z,50.47
2022-12-19T03:43:26.271Z,47.28
2022-12-19T03:43:59.218Z,50.22
2022-12-19T03:44:33.549Z,50.80
2022-12-19T03:45:07.046Z,48.67
2022-12-19T03:46:02.649Z,53.25
2022-12-19T03:46:35.524Z,60.00
2022-12-19T03:47:23.705Z,51.72
2022-12-19T03:48:02.509Z,51.83
2022-12-19T03:48:47.993Z,48.40
2022-12-19T03:49:19.617Z,51.55
2022-12-19T03:49:51.187Z,51.45
2022-12-19T03:50:25.221Z,50.00
2022-12-19T03:51:15.410Z,53.70
2022-12-19T03:51:59.468Z,59.28
2022-12-19T03:53:10.492Z,54.92
2022-12-19T03:53:51.734Z,45.97
2022-12-19T03:54:26.764Z,46.33
2022-12-19T03:55:08.641Z,46.88
2022-12-19T03:55:48.380Z,53.03
2022-12-19T03:56:32.319Z,50.72
2022-12-19T03:57:06.565Z,53.63
2022-12-19T03:57:43.389Z,53.42
2022-12-19T03:58:24.803Z,41.50
2022-12-19T03:59:01.905Z,49.60
2022-12-19T03:59:34.853Z,55.17
2022-12-19T04:00:09.220Z,52.78
2022-12-19T04:00:49.638Z,49.40
2022-12-19T04:01:21.695Z,50.10
2022-12-19T04:01:53.760Z,59.08
2022-12-19T04:02:25.904Z,55.95
2022-12-19T04:02:58.783Z,50.47
2022-12-19T04:03:30.900Z,51.97
2022-12-19T04:04:03.630Z,55.58
2022-12-19T04:04:44.905Z,48.67
2022-12-19T04:05:21.606Z,59.15
2022-12-19T04:05:54.274Z,48.75
2022-12-19T04:06:28.623Z,47.60
2022-12-19T04:07:01.785Z,53.67
2022-12-19T04:07:34.077Z,50.33
2022-12-19T04:08:06.903Z,52.13
2022-12-19T04:08:39.651Z,55.85
2022-12-19T04:09:13.066Z,49.70
2022-12-19T04:09:47.145Z,64.28
2022-12-19T04:10:22.011Z,47.60
2022-12-19T04:10:55.993Z,50.10
2022-12-19T04:11:31.241Z,51.10
2022-12-19T04:12:07.146Z,51.90
2022-12-19T04:13:07.248Z,54.92
2022-12-19T04:13:47.311Z,44.55
2022-12-19T04:14:39.098Z,51.38
2022-12-19T04:15:13.852Z,41.58
2022-12-19T04:15:58.313Z,45.95
2022-12-19T04:16:32.915Z,45.75
2022-12-19T04:17:15.782Z,47.28
2022-12-19T04:17:57.538Z,47.95
2022-12-19T04:18:29.613Z,46.75
2022-12-19T04:19:11.612Z,47.00
2022-12-19T04:20:01.526Z,45.72
2022-12-19T04:20:35.258Z,42.22
2022-12-19T04:21:12.998Z,46.83
2022-12-19T04:21:49.578Z,48.70
2022-12-19T04:22:26.048Z,55.83
2022-12-19T04:23:04.710Z,47.30
2022-12-19T04:23:44.939Z,60.38
2022-12-19T04:24:21.763Z,49.35
2022-12-19T04:24:54.917Z,44.35
2022-12-19T04:25:29.876Z,44.35
2022-12-19T04:26:03.555Z,47.35
2022-12-19T04:26:36.640Z,47.97
2022-12-19T04:27:09.648Z,45.53
2022-12-19T04:27:45.396Z,49.75
2022-12-19T04:28:27.310Z,44.15
2022-12-19T04:29:01.877Z,44.30
2022-12-19T04:29:34.733Z,45.55
2022-12-19T04:30:09.924Z,55.88
2022-12-19T04:30:43.250Z,52.45
2022-12-19T04:31:16.398Z,50.00
2022-12-19T04:31:48.523Z,57.22
2022-12-19T04:32:20.649Z,57.50
2022-12-19T04:32:56.377Z,50.60
2022-12-19T04:33:27.933Z,52.45
2022-12-19T04:33:59.662Z,55.45
2022-12-19T04:34:36.028Z,50.67
2022-12-19T04:35:11.033Z,50.70
2022-12-19T04:35:42.595Z,51.92
2022-12-19T04:36:14.188Z,52.15
2022-12-19T04:36:45.863Z,54.15
2022-12-19T04:37:17.457Z,54.80
2022-12-19T04:37:49.013Z,49.30
2022-12-19T04:38:23.346Z,60.97
2022-12-19T04:38:54.854Z,52.15
2022-12-19T04:39:26.377Z,54.05
2022-12-19T04:39:58.710Z,58.60
2022-12-19T04:40:30.235Z,61.90
2022-12-19T04:41:02.087Z,52.70
2022-12-19T04:41:33.698Z,49.20
2022-12-19T04:42:08.375Z,56.03
2022-12-19T04:42:40.099Z,54.33
2022-12-19T04:43:11.567Z,57.60
2022-12-19T04:43:43.232Z,52.10
2022-12-19T04:44:14.850Z,59.97
2022-12-19T04:44:46.386Z,52.05
2022-12-19T04:45:17.904Z,53.25
2022-12-19T04:45:54.023Z,50.80
2022-12-19T04:46:28.672Z,50.90
2022-12-19T04:47:00.225Z,50.63
2022-12-19T04:47:31.965Z,57.92
2022-12-19T04:48:03.674Z,55.83
2022-12-19T04:48:36.951Z,59.80
2022-12-19T04:49:08.796Z,58.65
2022-12-19T04:49:40.385Z,52.65
2022-12-19T04:50:12.213Z,56.60
2022-12-19T04:50:43.728Z,69.25
2022-12-19T04:51:18.499Z,54.15
2022-12-19T04:51:50.040Z,60.08
2022-12-19T04:52:21.541Z,57.53
2022-12-19T04:52:56.980Z,64.70
2022-12-19T04:53:28.869Z,63.45
2022-12-19T04:54:00.404Z,68.18
2022-12-19T04:54:33.802Z,57.05
2022-12-19T04:55:05.805Z,62.25
2022-12-19T04:55:37.431Z,61.83
2022-12-19T04:56:10.334Z,59.85
2022-12-19T04:56:41.945Z,58.28
2022-12-19T04:57:13.573Z,61.08
2022-12-19T04:57:47.173Z,58.00
2022-12-19T04:58:21.818Z,57.65
2022-12-19T04:59:00.163Z,60.60
2022-12-19T04:59:31.903Z,62.92
2022-12-19T05:00:05.164Z,56.33
2022-12-19T05:00:36.710Z,56.92
2022-12-19T05:01:09.147Z,54.97
2022-12-19T05:01:41.008Z,67.00
2022-12-19T05:02:12.758Z,64.07
2022-12-19T05:02:44.650Z,69.43
2022-12-19T05:03:16.422Z,61.38
2022-12-19T05:03:54.079Z,71.38
2022-12-19T05:04:26.781Z,61.78
2022-12-19T05:04:58.803Z,64.25
2022-12-19T05:05:30.347Z,62.92
2022-12-19T05:06:13.397Z,63.97
2022-12-19T05:06:45.165Z,62.55
2022-12-19T05:07:19.359Z,57.40
2022-12-19T05:07:51.653Z,63.65
2022-12-19T05:08:23.171Z,57.30
2022-12-19T05:08:55.604Z,66.38
2022-12-19T05:09:27.157Z,60.53
2022-12-19T05:10:01.130Z,61.60
2022-12-19T05:10:32.679Z,57.25
2022-12-19T05:11:05.890Z,64.97
2022-12-19T05:11:38.005Z,57.38
2022-12-19T05:12:10.230Z,62.00
2022-12-19T05:12:44.080Z,58.17
2022-12-19T05:13:16.087Z,56.58
2022-12-19T05:13:51.670Z,53.45
2022-12-19T05:14:23.266Z,56.17
2022-12-19T05:14:54.778Z,64.90
2022-12-19T05:15:26.422Z,55.63
2022-12-19T05:16:03.002Z,58.65
2022-12-19T05:16:37.594Z,55.88
2022-12-19T05:17:09.116Z,47.85
2022-12-19T05:17:41.036Z,53.85
2022-12-19T05:18:12.570Z,56.15
2022-12-19T05:18:44.123Z,58.28
2022-12-19T05:19:16.906Z,58.15
2022-12-19T05:19:49.110Z,56.67
2022-12-19T05:20:20.904Z,60.65
2022-12-19T05:20:53.217Z,59.85
2022-12-19T05:21:28.056Z,51.85
2022-12-19T05:21:59.642Z,55.80
2022-12-19T05:22:38.521Z,52.80
2022-12-19T05:23:16.795Z,56.65
2022-12-19T05:23:49.800Z,57.17
2022-12-19T05:24:21.480Z,51.55
2022-12-19T05:24:53.005Z,50.05
2022-12-19T05:25:24.572Z,60.83
2022-12-19T05:26:03.112Z,54.85
2022-12-19T05:26:34.631Z,56.92
2022-12-19T05:27:06.504Z,57.70
2022-12-19T05:27:38.051Z,55.97
2022-12-19T05:28:09.562Z,48.58
2022-12-19T05:28:41.572Z,51.58
2022-12-19T05:29:13.268Z,51.50
2022-12-19T05:29:44.848Z,56.33
2022-12-19T05:30:16.398Z,55.33
2022-12-19T05:30:52.085Z,48.45
2022-12-19T05:31:25.737Z,53.15
2022-12-19T05:31:57.330Z,46.30
2022-12-19T05:32:33.871Z,53.95
2022-12-19T05:33:05.484Z,55.42
2022-12-19T05:33:37.357Z,51.75
2022-12-19T05:34:08.917Z,55.25
2022-12-19T05:34:40.415Z,47.13
2022-12-19T05:35:11.950Z,51.83
2022-12-19T05:35:43.907Z,50.83
2022-12-19T05:36:16.376Z,50.78
2022-12-19T05:36:47.945Z,48.05
2022-12-19T05:37:19.440Z,49.55
2022-12-19T05:37:51.289Z,50.95
2022-12-19T05:38:22.806Z,50.53
2022-12-19T05:38:54.317Z,53.60
2022-12-19T05:39:25.826Z,48.60
2022-12-19T05:40:04.734Z,55.90
2022-12-19T05:40:36.363Z,47.88
2022-12-19T05:41:15.837Z,47.28
2022-12-19T05:41:49.153Z,48.13
2022-12-19T05:42:20.914Z,47.10
2022-12-19T05:42:52.555Z,47.97
2022-12-19T05:43:24.320Z,45.58
2022-12-19T05:43:56.409Z,45.92
2022-12-19T05:44:28.019Z,43.80
2022-12-19T05:44:59.534Z,51.40
2022-12-19T05:45:31.092Z,45.92
2022-12-19T05:46:04.633Z,49.28
2022-12-19T05:46:36.488Z,47.67
2022-12-19T05:47:08.069Z,47.30
2022-12-19T05:47:39.569Z,51.50
2022-12-19T05:48:11.276Z,47.78
2022-12-19T05:48:42.804Z,44.78
2022-12-19T05:49:17.823Z,52.63
2022-12-19T05:49:49.486Z,45.00
2022-12-19T05:50:21.209Z,52.65
2022-12-19T05:50:55.738Z,52.42
2022-12-19T05:51:27.334Z,48.38
2022-12-19T05:51:58.998Z,51.20
2022-12-19T05:52:31.078Z,53.20
2022-12-19T05:53:02.672Z,45.63
2022-12-19T05:53:45.497Z,52.30
2022-12-19T05:54:18.070Z,49.95
2022-12-19T05:54:49.591Z,50.78
2022-12-19T05:55:21.093Z,45.22
2022-12-19T05:55:52.615Z,48.33
2022-12-19T05:56:24.153Z,46.65
2022-12-19T05:56:57.193Z,50.47
2022-12-19T05:57:29.373Z,45.95
2022-12-19T05:58:00.998Z,51.38
2022-12-19T05:58:33.542Z,48.90
2022-12-19T05:59:05.041Z,49.38
2022-12-19T05:59:36.617Z,40.72
2022-12-19T06:00:11.471Z,43.17
2022-12-19T06:00:45.981Z,45.38
2022-12-19T06:01:22.989Z,43.88
2022-12-19T06:01:54.638Z,47.78
2022-12-19T06:02:27.742Z,43.33
2022-12-19T06:02:59.452Z,53.22
2022-12-19T06:03:31.145Z,44.90
2022-12-19T06:04:04.296Z,45.20
2022-12-19T06:04:38.512Z,46.90
2022-12-19T06:05:10.106Z,46.75
2022-12-19T06:05:41.923Z,46.20
2022-12-19T06:06:19.591Z,47.28
2022-12-19T06:06:51.085Z,45.15
2022-12-19T06:07:22.872Z,40.67
2022-12-19T06:07:55.230Z,39.97
2022-12-19T06:08:26.948Z,49.13
2022-12-19T06:08:59.673Z,42.10
2022-12-19T06:09:31.288Z,42.15
2022-12-19T06:10:03.831Z,45.10
2022-12-19T06:10:35.356Z,39.25
2022-12-19T06:11:08.301Z,46.83
2022-12-19T06:11:39.816Z,47.08
2022-12-19T06:12:11.321Z,44.30
2022-12-19T06:12:42.849Z,44.42
2022-12-19T06:13:15.431Z,43.90
2022-12-19T06:13:46.916Z,50.72
2022-12-19T06:14:18.537Z,44.30
2022-12-19T06:14:51.392Z,46.47
2022-12-19T06:15:23.012Z,40.40
2022-12-19T06:15:59.299Z,47.28
2022-12-19T06:16:30.936Z,39.17
2022-12-19T06:17:02.495Z,42.22
2022-12-19T06:17:34.450Z,42.83
2022-12-19T06:18:06.154Z,44.65
2022-12-19T06:18:42.910Z,45.10
2022-12-19T06:19:15.956Z,46.78
2022-12-19T06:19:50.668Z,41.33
2022-12-19T06:20:22.474Z,42.47
2022-12-19T06:20:59.131Z,44.78
2022-12-19T06:21:30.705Z,48.13
2022-12-19T06:22:02.184Z,44.75
2022-12-19T06:22:34.422Z,45.70
2022-12-19T06:23:05.952Z,41.75
2022-12-19T06:23:37.952Z,44.75
2022-12-19T06:24:09.525Z,44.67
2022-12-19T06:24:41.119Z,48.20
2022-12-19T06:25:15.328Z,45.03
2022-12-19T06:25:46.826Z,37.65
2022-12-19T06:26:22.667Z,41.85
2022-12-19T06:26:54.847Z,35.83
2022-12-19T06:27:26.359Z,39.13
2022-12-19T06:27:57.898Z,43.97
2022-12-19T06:28:30.790Z,42.13
2022-12-19T06:29:02.548Z,39.20
2022-12-19T06:29:34.161Z,39.40
2022-12-19T06:30:06.477Z,45.33
2022-12-19T06:30:40.128Z,44.13
2022-12-19T06:31:12.558Z,35.65
2022-12-19T06:31:46.417Z,37.92
2022-12-19T06:32:17.961Z,37.20
2022-12-19T06:32:49.459Z,39.55
2022-12-19T06:33:21.056Z,47.83
2022-12-19T06:33:52.885Z,40.10
2022-12-19T06:34:54.874Z,44.97
2022-12-19T06:35:48.337Z,37.08
2022-12-19T06:36:22.267Z,37.35
2022-12-19T06:36:56.791Z,37.42
2022-12-19T06:37:28.332Z,36.45
2022-12-19T06:38:01.125Z,36.33
2022-12-19T06:38:34.353Z,38.47
2022-12-19T06:39:05.987Z,38.42
2022-12-19T06:39:37.621Z,38.35
2022-12-19T06:40:29.745Z,40.40
2022-12-19T06:41:21.307Z,36.83
2022-12-19T06:42:11.832Z,37.63
2022-12-19T06:42:43.335Z,38.05
2022-12-19T06:43:14.873Z,38.92
2022-12-19T06:43:50.532Z,38.65
2022-12-19T06:44:24.845Z,36.13
2022-12-19T06:44:56.585Z,42.28
2022-12-19T06:45:28.242Z,42.75
2022-12-19T06:45:59.846Z,38.53
2022-12-19T06:46:31.976Z,39.47
2022-12-19T06:47:03.585Z,42.00
2022-12-19T06:47:35.092Z,40.47
2022-12-19T06:48:09.382Z,40.33
2022-12-19T06:48:41.626Z,38.90
2022-12-19T06:49:13.396Z,43.92
2022-12-19T06:49:48.792Z,36.92
2022-12-19T06:50:21.354Z,40.30
2022-12-19T06:50:53.024Z,40.30
2022-12-19T06:51:24.637Z,38.42
2022-12-19T06:51:56.129Z,38.92
2022-12-19T06:52:27.640Z,36.85
2022-12-19T06:53:00.007Z,35.60
2022-12-19T06:53:38.792Z,36.53
2022-12-19T06:54:11.415Z,38.80
2022-12-19T06:54:43.089Z,39.35
2022-12-19T06:55:14.683Z,36.05
2022-12-19T06:55:50.820Z,41.10
2022-12-19T06:56:22.888Z,39.35
2022-12-19T06:56:55.901Z,38.55
2022-12-19T06:57:27.391Z,39.45
2022-12-19T06:57:58.882Z,37.10
2022-12-19T06:58:31.073Z,35.03
2022-12-19T06:59:02.964Z,37.45
2022-12-19T06:59:34.522Z,38.50
2022-12-19T07:00:06.677Z,38.03
2022-12-19T07:00:38.789Z,36.15
2022-12-19T07:01:21.184Z,34.28
2022-12-19T07:02:13.299Z,38.33
2022-12-19T07:02:49.100Z,36.15
2022-12-19T07:03:27.075Z,38.85
2022-12-19T07:03:58.748Z,38.78
2022-12-19T07:04:39.547Z,40.42
2022-12-19T07:05:11.857Z,36.70
2022-12-19T07:05:43.535Z,35.25
2022-12-19T07:06:15.406Z,40.42
2022-12-19T07:06:49.324Z,36.90
2022-12-19T07:07:21.260Z,40.67
2022-12-19T07:07:52.899Z,40.25
2022-12-19T07:08:24.415Z,36.78
2022-12-19T07:08:58.922Z,39.63
2022-12-19T07:09:30.680Z,38.90
2022-12-19T07:10:03.454Z,36.03
2022-12-19T07:10:35.154Z,40.95
2022-12-19T07:11:06.852Z,40.40
2022-12-19T07:11:38.364Z,35.67
2022-12-19T07:12:09.904Z,38.60
2022-12-19T07:12:41.437Z,40.92
2022-12-19T07:13:13.095Z,35.20
2022-12-19T07:13:44.705Z,37.15
2022-12-19T07:14:16.408Z,39.47
2022-12-19T07:14:53.004Z,34.47
2022-12-19T07:15:25.355Z,34.92
2022-12-19T07:16:03.351Z,32.40
2022-12-19T07:16:34.982Z,38.45
2022-12-19T07:17:06.644Z,33.05
2022-12-19T07:17:38.691Z,32.03
2022-12-19T07:18:10.720Z,36.33
2022-12-19T07:18:42.401Z,43.72
2022-12-19T07:19:14.194Z,37.80
2022-12-19T07:19:46.947Z,40.35
2022-12-19T07:20:26.218Z,41.92
2022-12-19T07:20:58.133Z,34.47
2022-12-19T07:21:29.856Z,36.63
2022-12-19T07:22:02.261Z,32.38
2022-12-19T07:22:34.632Z,40.63
2022-12-19T07:23:06.939Z,36.92
2022-12-19T07:23:38.612Z,33.83
2022-12-19T07:24:11.447Z,32.55
2022-12-19T07:24:43.368Z,39.55
2022-12-19T07:25:20.381Z,37.03
2022-12-19T07:25:52.002Z,37.38
2022-12-19T07:26:24.435Z,32.58
2022-12-19T07:26:56.136Z,35.78
2022-12-19T07:27:35.246Z,37.35
2022-12-19T07:28:07.965Z,41.58
2022-12-19T07:28:39.625Z,40.03
2022-12-19T07:29:11.976Z,41.10
2022-12-19T07:29:43.559Z,34.53
2022-12-19T07:30:15.075Z,41.50
2022-12-19T07:30:46.615Z,35.90
2022-12-19T07:31:19.755Z,38.50
2022-12-19T07:31:51.386Z,37.35
2022-12-19T07:32:22.999Z,42.55
2022-12-19T07:32:54.510Z,38.00
2022-12-19T07:33:26.266Z,39.22
2022-12-19T07:33:58.128Z,38.92
2022-12-19T07:34:30.155Z,41.97